Terminal Aerodrome Forecast
Issued by NWS Dodge City, KS

Home | Current Version | Previous Version | Text Only | Print | Product List | Glossary On
Versions: 1 2 3 4 5 6 7 8 9 10 11 12 13 14 15 16 17 18 19 20
000
FTUS43 KDDC 041836 AAA
TAFDDC
TAF AMD
KDDC 041836Z 0419/0518 32006KT P6SM SKC
     FM042100 23006KT P6SM SKC
     FM050300 19012KT P6SM SKC
     FM050600 19010G20KT P6SM SKC WS020/22040KT
     FM051300 19015G25KT P6SM SKC
     FM051600 19022G32KT P6SM SCT200=

USA.gov is the U.S. government's official web portal to all federal, state and local government web resources and services.